Time;durP1;ratioP1;P1;durP2;ratioP2;P2;SDS_P1;SDS_P2;PMS_P1;PMS_P2;Temp;Humidity;BMP_temperature;BMP_pressure;BME280_temperature;BME280_humidity;BME280_pressure;Samples;Min_cycle;Max_cycle;Signal;HPM_P1;HPM_P2
2022/11/02 00:01:47;;;;;;;35.50;17.87;;;;;;;-141.97;63.75;47603.66;5076064;28;20536;-80
2022/11/02 00:04:12;;;;;;;35.90;17.77;;;;;;;-141.97;63.62;47659.38;5076095;28;20172;-80
2022/11/02 00:06:40;;;;;;;33.90;17.50;;;;;;;-141.97;63.00;47561.38;5075838;28;20226;-80
2022/11/02 00:09:05;;;;;;;31.73;17.57;;;;;;;-141.97;62.89;47553.69;5075952;28;20156;-81
2022/11/02 00:11:31;;;;;;;35.80;17.90;;;;;;;-141.97;62.97;47572.91;5075574;28;20203;-80
2022/11/02 00:13:57;;;;;;;36.97;17.53;;;;;;;-141.97;63.04;47563.28;5075493;28;20187;-80
2022/11/02 00:16:24;;;;;;;32.37;16.37;;;;;;;-141.97;63.53;47580.59;5075016;28;20164;-80
2022/11/02 00:18:52;;;;;;;32.10;17.43;;;;;;;-141.97;63.73;47540.22;5075452;28;20645;-80
2022/11/02 00:21:20;;;;;;;33.93;17.40;;;;;;;-141.97;63.94;47511.38;5075752;28;20173;-80
2022/11/02 00:23:46;;;;;;;31.70;17.13;;;;;;;-141.97;64.08;47557.53;5075459;28;20168;-81
2022/11/02 00:26:12;;;;;;;26.53;14.93;;;;;;;-141.97;64.13;47547.91;5070716;28;20200;-81
2022/11/02 00:28:37;;;;;;;32.40;16.23;;;;;;;-141.97;64.21;47574.81;5055097;28;20257;-80
2022/11/02 00:31:03;;;;;;;29.00;15.67;;;;;;;-141.97;64.68;47576.75;5054930;28;20184;-80
2022/11/02 00:33:28;;;;;;;32.67;15.87;;;;;;;-141.97;64.37;47563.28;5055043;28;20161;-80
2022/11/02 00:35:54;;;;;;;28.53;15.50;;;;;;;-141.97;64.81;47559.44;5054777;28;20789;-80
2022/11/02 00:38:20;;;;;;;26.87;14.83;;;;;;;-141.97;64.88;47542.16;5055554;28;20162;-80
2022/11/02 00:40:45;;;;;;;28.90;14.77;;;;;;;-141.97;65.05;47540.22;5054825;28;20193;-80
2022/11/02 00:43:11;;;;;;;24.23;14.47;;;;;;;-141.97;65.24;47553.69;5054977;28;20252;-80
2022/11/02 00:45:36;;;;;;;27.00;14.63;;;;;;;-141.97;65.27;47547.91;5054854;28;20170;-80
2022/11/02 00:48:02;;;;;;;31.00;15.83;;;;;;;-141.97;65.21;47553.69;5054759;28;20605;-80
2022/11/02 00:50:27;;;;;;;40.30;18.37;;;;;;;-141.97;65.50;47546.00;5054672;28;20162;-81
2022/11/02 00:52:53;;;;;;;26.83;14.73;;;;;;;-141.97;65.88;47561.38;5055001;28;20199;-81
2022/11/02 00:55:18;;;;;;;42.50;21.70;;;;;;;-141.97;66.02;47569.06;5054934;28;20563;-81
2022/11/02 00:57:43;;;;;;;46.40;23.73;;;;;;;-141.97;65.96;47582.50;5056077;28;20173;-78
2022/11/02 01:00:10;;;;;;;47.93;24.47;;;;;;;-141.97;66.15;47551.75;5059635;28;20196;-79
2022/11/02 01:02:36;;;;;;;36.90;18.07;;;;;;;-141.97;65.74;47561.38;5054761;28;20192;-81
2022/11/02 01:05:03;;;;;;;34.77;16.80;;;;;;;-141.97;65.38;47555.59;5054402;28;20170;-81
2022/11/02 01:07:28;;;;;;;31.47;15.70;;;;;;;-141.97;65.37;47540.22;5054487;28;20161;-80
2022/11/02 01:09:54;;;;;;;32.47;16.33;;;;;;;-141.97;65.48;47542.16;5053214;28;20215;-80
2022/11/02 01:12:19;;;;;;;35.43;16.23;;;;;;;-141.97;65.71;47582.50;5054410;28;20637;-81
2022/11/02 01:14:48;;;;;;;37.20;16.07;;;;;;;-141.97;65.84;47590.19;5054241;28;20169;-81
2022/11/02 01:17:14;;;;;;;37.33;18.30;;;;;;;-141.97;65.67;47692.06;5036165;28;20234;-81
2022/11/02 01:19:39;;;;;;;41.73;20.10;;;;;;;-141.97;65.46;47580.59;5054214;28;20165;-81
2022/11/02 01:22:05;;;;;;;59.30;26.67;;;;;;;-141.97;65.78;47569.06;5053930;28;20162;-80
2022/11/02 01:24:30;;;;;;;53.40;24.00;;;;;;;-141.97;66.20;47576.75;5054179;28;20185;-80
2022/11/02 01:26:56;;;;;;;43.70;21.20;;;;;;;-141.97;66.01;47530.59;5053500;28;20184;-80
2022/11/02 01:29:21;;;;;;;59.47;29.50;;;;;;;-141.97;65.99;47572.91;5054079;28;20644;-80
2022/11/02 01:31:47;;;;;;;43.97;20.77;;;;;;;-141.97;65.95;47592.13;5053827;28;20170;-79
2022/11/02 01:34:13;;;;;;;42.13;21.27;;;;;;;-141.97;65.85;47565.22;5053430;28;20323;-79
2022/11/02 01:36:38;;;;;;;47.57;22.93;;;;;;;-141.97;66.65;47680.53;5053788;28;20165;-80
2022/11/02 01:39:04;;;;;;;48.70;22.83;;;;;;;-141.97;66.04;47540.22;5035797;28;20549;-79
2022/11/02 01:41:29;;;;;;;49.30;22.97;;;;;;;-141.97;66.19;47684.38;5053846;28;20619;-80
2022/11/02 01:43:57;;;;;;;41.50;19.37;;;;;;;-141.97;66.06;47601.72;5054392;28;20181;-80
2022/11/02 01:46:44;;;;;;;42.33;19.03;;;;;;;-141.97;66.28;47592.13;5053906;28;20165;-80
2022/11/02 01:49:13;;;;;;;35.97;17.10;;;;;;;-141.97;67.30;47561.38;5053611;28;20166;-81
2022/11/02 01:51:56;;;;;;;31.83;16.47;;;;;;;-141.97;67.27;47534.44;5035525;28;20631;-81
2022/11/02 01:54:26;;;;;;;30.90;16.13;;;;;;;-141.97;67.32;47561.38;5054220;28;20185;-79
2022/11/02 01:56:57;;;;;;;30.53;16.50;;;;;;;-141.97;67.90;47559.44;5054079;28;20181;-79
2022/11/02 01:59:37;;;;;;;35.33;17.37;;;;;;;-141.97;67.93;47569.06;5053691;28;20165;-79
2022/11/02 02:02:07;;;;;;;62.87;27.83;;;;;;;-141.97;67.58;47553.69;5053444;28;20173;-80
2022/11/02 02:04:34;;;;;;;59.87;25.03;;;;;;;-141.97;68.06;47546.00;5053411;28;20169;-80
2022/11/02 02:07:00;;;;;;;52.50;22.97;;;;;;;-141.97;68.94;47561.38;5053555;28;20165;-80
2022/11/02 02:09:27;;;;;;;50.73;23.13;;;;;;;-141.97;68.29;47663.22;5053328;28;20169;-79
2022/11/02 02:11:53;;;;;;;51.83;23.73;;;;;;;-141.97;68.40;47594.03;5053262;28;20610;-81
2022/11/02 02:14:19;;;;;;;41.63;20.13;;;;;;;-141.97;68.46;47546.00;5053347;28;20161;-81
2022/11/02 02:17:03;;;;;;;37.57;18.07;;;;;;;-141.97;68.19;47588.28;5053385;28;20198;-80
2022/11/02 02:19:46;;;;;;;45.63;22.00;;;;;;;-141.97;67.95;47649.78;5053160;28;20168;-80
2022/11/02 02:22:42;;;;;;;49.23;22.30;;;;;;;-141.97;68.10;47540.22;5053137;28;20161;-79
2022/11/02 02:25:07;;;;;;;36.33;17.63;;;;;;;-141.97;69.31;47561.38;5052969;28;20176;-80
2022/11/02 02:28:00;;;;;;;33.00;17.23;;;;;;;-141.97;71.24;47576.75;5053428;28;20596;-81
2022/11/02 02:30:29;;;;;;;33.43;16.97;;;;;;;-141.97;72.03;47580.59;5053569;28;20181;-80
2022/11/02 02:33:00;;;;;;;39.73;17.77;;;;;;;-141.97;72.28;47578.66;5052761;28;20169;-80
2022/11/02 02:36:14;;;;;;;38.53;17.80;;;;;;;-141.97;71.65;47553.69;5052568;28;20247;-80
2022/11/02 02:39:24;;;;;;;33.10;16.93;;;;;;;-141.97;71.80;47551.75;4971650;28;20184;-81
2022/11/02 02:41:54;;;;;;;30.80;15.70;;;;;;;-141.97;71.36;47628.63;4895765;29;20202;-81
2022/11/02 02:44:22;;;;;;;41.57;19.00;;;;;;;-141.97;71.22;47607.50;4895864;29;20238;-81
2022/11/02 02:46:57;;;;;;;31.57;16.57;;;;;;;-141.97;71.25;47588.28;4895530;29;20198;-81
2022/11/02 02:49:54;;;;;;;27.63;15.30;;;;;;;-141.97;71.08;47544.06;4895625;29;20718;-79
2022/11/02 02:52:22;;;;;;;41.43;17.93;;;;;;;-141.97;70.90;47544.06;4858409;29;20415;-80
2022/11/02 02:54:51;;;;;;;33.40;16.23;;;;;;;-141.97;70.85;47524.84;4858508;29;20263;-80
2022/11/02 02:57:19;;;;;;;34.90;17.47;;;;;;;-141.97;70.76;47570.97;4858355;29;20207;-81
2022/11/02 02:59:47;;;;;;;30.23;15.93;;;;;;;-141.97;70.74;47590.19;4858196;29;20756;-81
2022/11/02 03:02:32;;;;;;;30.30;15.37;;;;;;;-141.97;71.02;47595.97;4858181;29;20266;-81
2022/11/02 03:04:58;;;;;;;29.57;15.03;;;;;;;-141.97;70.96;47561.38;4858298;29;20199;-81
2022/11/02 03:07:26;;;;;;;36.03;15.30;;;;;;;-141.97;71.24;47565.22;4858451;29;20657;-80
2022/11/02 03:10:00;;;;;;;32.10;15.73;;;;;;;-141.97;72.26;47546.00;4858280;29;20192;-79
2022/11/02 03:12:34;;;;;;;27.57;15.13;;;;;;;-141.97;73.19;47546.00;4877008;29;20190;-80
2022/11/02 03:14:59;;;;;;;30.40;15.63;;;;;;;-141.97;73.51;47588.28;4912862;28;20578;-80
2022/11/02 03:18:03;;;;;;;35.20;16.97;;;;;;;-141.97;72.49;47567.13;4971796;28;20179;-80
2022/11/02 03:20:37;;;;;;;42.67;18.57;;;;;;;-141.97;72.67;47553.69;4970947;28;20305;-80
2022/11/02 03:23:07;;;;;;;53.60;20.13;;;;;;;-141.97;72.03;47565.22;4971607;28;20195;-80
2022/11/02 03:25:33;;;;;;;42.83;19.23;;;;;;;-141.97;71.91;47576.75;4972076;28;20656;-80
2022/11/02 03:28:10;;;;;;;40.80;17.93;;;;;;;-141.97;72.03;47549.84;4989018;28;20228;-79
2022/11/02 03:30:46;;;;;;;34.83;16.27;;;;;;;-141.97;71.61;47601.72;5052892;28;20158;-79
2022/11/02 03:33:29;;;;;;;36.63;17.70;;;;;;;-141.97;71.86;47544.06;5052336;28;20161;-80
2022/11/02 03:36:07;;;;;;;30.73;15.63;;;;;;;-141.97;71.57;47565.22;5052095;28;20216;-80
2022/11/02 03:39:00;;;;;;;32.57;17.13;;;;;;;-141.97;71.42;47576.75;5052133;28;20169;-80
2022/11/02 03:41:28;;;;;;;34.53;15.73;;;;;;;-141.97;71.56;47580.59;5052257;28;20185;-80
2022/11/02 03:44:02;;;;;;;31.23;15.90;;;;;;;-141.97;71.87;47542.16;5052382;28;20238;-80
2022/11/02 03:46:31;;;;;;;31.63;15.40;;;;;;;-141.97;72.71;47530.59;5052233;28;20165;-80
2022/11/02 03:49:01;;;;;;;29.37;15.40;;;;;;;-141.97;73.39;47509.47;5052300;28;20169;-81
2022/11/02 03:51:30;;;;;;;53.87;27.13;;;;;;;-141.97;73.68;47565.22;5055630;28;20214;-80
2022/11/02 03:54:05;;;;;;;49.70;23.80;;;;;;;-141.97;73.89;47565.22;5055951;28;20231;-80
2022/11/02 03:56:36;;;;;;;46.93;22.13;;;;;;;-141.97;73.46;47595.97;5055915;28;20724;-80
2022/11/02 03:59:02;;;;;;;38.63;18.17;;;;;;;-141.97;72.81;47615.19;5057124;28;20246;-80
2022/11/02 04:01:29;;;;;;;55.67;22.40;;;;;;;-141.97;72.40;47594.03;5055754;28;20708;-80
2022/11/02 04:03:55;;;;;;;58.33;24.90;;;;;;;-141.97;72.06;47582.50;5055815;28;20208;-80
2022/11/02 04:06:22;;;;;;;40.50;20.43;;;;;;;-141.97;72.12;47578.66;5055756;28;20165;-80
2022/11/02 04:08:48;;;;;;;45.60;21.70;;;;;;;-141.97;73.66;47538.28;5056445;28;20632;-77
2022/11/02 04:16:43;;;;;;;40.30;17.13;;;;;;;-141.97;76.85;47661.31;5055939;28;20172;-80
2022/11/02 04:19:27;;;;;;;48.50;21.47;;;;;;;-141.97;77.50;47549.84;5055772;28;20165;-80
2022/11/02 04:27:29;;;;;;;31.13;16.70;;;;;;;-141.97;78.32;47567.13;5009422;28;20430;-81
2022/11/02 04:29:54;;;;;;;38.07;18.57;;;;;;;-141.97;78.48;47542.16;5010819;28;20468;-81
2022/11/02 04:35:04;;;;;;;29.67;14.57;;;;;;;-141.97;78.04;47569.06;5010967;28;20415;-81
2022/11/02 04:40:13;;;;;;;32.40;16.20;;;;;;;-141.97;77.67;47574.81;5030787;28;20220;-81
2022/11/02 04:42:38;;;;;;;37.90;19.13;;;;;;;-141.97;77.82;47699.75;5021110;28;20446;-80
2022/11/02 04:45:04;;;;;;;37.63;18.10;;;;;;;-141.97;77.48;47578.66;5010568;28;20230;-79
2022/11/02 04:47:29;;;;;;;31.20;16.23;;;;;;;-141.97;76.83;47563.28;4993955;28;20663;-80
2022/11/02 04:49:54;;;;;;;35.53;15.90;;;;;;;-141.97;76.86;47542.16;5010574;28;20206;-81
2022/11/02 04:52:20;;;;;;;30.70;16.17;;;;;;;-141.97;76.71;47578.66;5009997;28;20229;-81
2022/11/02 04:54:45;;;;;;;35.67;15.43;;;;;;;-141.97;76.12;47597.88;5010374;28;20277;-80
2022/11/02 04:57:10;;;;;;;35.20;18.37;;;;;;;-141.97;77.34;47565.22;5009965;28;20203;-80
2022/11/02 04:59:36;;;;;;;33.03;16.50;;;;;;;-141.97;77.34;47555.59;5010343;28;20746;-80
2022/11/02 05:02:01;;;;;;;36.87;17.10;;;;;;;-141.97;76.75;47553.69;5009376;28;20214;-80
2022/11/02 05:04:27;;;;;;;44.37;18.20;;;;;;;-141.97;75.76;47588.28;5033919;28;20653;-81
2022/11/02 05:06:52;;;;;;;40.17;18.50;;;;;;;-141.97;75.52;47588.28;5054324;28;20339;-81
2022/11/02 05:09:17;;;;;;;37.67;15.77;;;;;;;-141.97;74.91;47601.72;5052633;28;20267;-81
2022/11/02 05:11:43;;;;;;;38.27;17.07;;;;;;;-141.97;74.63;47578.66;5052594;28;20235;-80
2022/11/02 05:14:08;;;;;;;35.03;16.30;;;;;;;-141.97;74.24;47588.28;5051826;28;20174;-80
2022/11/02 05:16:33;;;;;;;28.03;14.63;;;;;;;-141.97;74.29;47563.28;5051418;28;20268;-80
2022/11/02 05:18:59;;;;;;;30.77;14.27;;;;;;;-141.97;75.24;47563.28;5059821;28;20192;-81
2022/11/02 05:21:24;;;;;;;32.17;14.30;;;;;;;-141.97;76.01;47582.50;5053951;28;20204;-82
2022/11/02 05:23:50;;;;;;;32.27;15.87;;;;;;;-141.97;76.66;47592.13;5062683;28;20232;-80
2022/11/02 05:26:15;;;;;;;31.07;15.27;;;;;;;-141.97;77.75;47603.66;5072342;28;20212;-81
2022/11/02 05:28:40;;;;;;;32.10;16.07;;;;;;;-141.97;77.50;47588.28;5072017;28;20181;-80
2022/11/02 05:31:06;;;;;;;29.17;15.80;;;;;;;-141.97;77.62;47565.22;5072179;28;20189;-81
2022/11/02 05:33:32;;;;;;;30.17;14.10;;;;;;;-141.97;76.92;47595.97;5072374;28;20177;-80
2022/11/02 05:35:59;;;;;;;32.10;14.20;;;;;;;-141.97;76.34;47567.13;5071499;28;20216;-81
2022/11/02 05:38:25;;;;;;;29.90;13.90;;;;;;;-141.97;75.47;47592.13;5070981;28;20435;-81
2022/11/02 05:40:58;;;;;;;30.47;13.17;;;;;;;-141.97;74.80;47586.34;5072190;28;20231;-80
2022/11/02 05:43:24;;;;;;;27.23;12.53;;;;;;;-141.97;74.10;47572.91;5071850;28;20183;-80
2022/11/02 05:45:54;;;;;;;28.40;14.13;;;;;;;-141.97;74.34;47578.66;5071593;28;20177;-80
2022/11/02 05:48:21;;;;;;;72.33;39.80;;;;;;;-141.97;74.32;47595.97;5053370;28;20787;-82
2022/11/02 05:50:46;;;;;;;123.03;70.40;;;;;;;-141.97;73.25;47665.16;5071170;28;20180;-81
2022/11/02 05:53:12;;;;;;;50.70;29.90;;;;;;;-141.97;72.69;47638.25;5072122;28;20264;-80
2022/11/02 05:55:37;;;;;;;178.50;72.67;;;;;;;-141.97;72.17;47599.81;5071269;28;20192;-79
2022/11/02 05:58:03;;;;;;;76.33;34.70;;;;;;;-141.97;72.14;47592.13;5070947;28;20219;-80
2022/11/02 06:00:28;;;;;;;82.47;39.73;;;;;;;-141.97;71.38;47553.69;5071991;28;20207;-79
2022/11/02 06:02:57;;;;;;;80.33;38.87;;;;;;;-141.97;70.66;47551.75;5072122;28;20211;-81
2022/11/02 06:05:23;;;;;;;70.63;34.10;;;;;;;-141.97;70.31;47551.75;5053600;28;20653;-80
2022/11/02 06:07:49;;;;;;;67.30;30.17;;;;;;;-141.97;69.67;47588.28;5070737;28;20181;-81
2022/11/02 06:10:14;;;;;;;55.00;21.53;;;;;;;-141.97;68.97;47572.91;5071482;28;20195;-79
2022/11/02 06:12:40;;;;;;;57.30;22.47;;;;;;;-141.97;68.72;47549.84;5070577;28;20572;-80
2022/11/02 06:15:06;;;;;;;42.10;20.20;;;;;;;-141.97;67.97;47561.38;5071241;28;20211;-80
2022/11/02 06:17:38;;;;;;;36.00;17.90;;;;;;;-141.97;67.49;47597.88;5070505;28;20177;-80
2022/11/02 06:20:05;;;;;;;32.10;16.47;;;;;;;-141.97;66.60;47601.72;5053752;28;20641;-82
2022/11/02 06:22:30;;;;;;;28.50;14.50;;;;;;;-141.97;66.57;47611.34;5051275;28;20556;-81
2022/11/02 06:24:55;;;;;;;26.60;13.67;;;;;;;-141.97;66.46;47561.38;5042050;28;20256;-80
2022/11/02 06:27:21;;;;;;;26.23;13.77;;;;;;;-141.97;66.15;47580.59;5051473;28;20208;-81
2022/11/02 06:29:46;;;;;;;27.87;13.83;;;;;;;-141.97;65.99;47576.75;5050662;28;20184;-80
2022/11/02 06:32:12;;;;;;;26.23;12.73;;;;;;;-141.97;65.47;47553.69;5033390;28;20690;-81
2022/11/02 06:34:37;;;;;;;24.13;11.40;;;;;;;-141.97;65.24;47584.44;5050291;28;20302;-80
2022/11/02 06:37:03;;;;;;;24.77;13.50;;;;;;;-141.97;64.69;47576.75;5050767;28;20189;-81
2022/11/02 06:39:28;;;;;;;30.93;15.23;;;;;;;-141.97;64.03;47572.91;5050715;28;20214;-81
2022/11/02 06:41:54;;;;;;;25.40;12.17;;;;;;;-141.97;63.33;47561.38;5050835;28;20209;-81
2022/11/02 06:44:19;;;;;;;20.50;11.50;;;;;;;-141.97;62.77;47576.75;5049712;28;20188;-81
2022/11/02 06:46:44;;;;;;;19.43;10.57;;;;;;;-141.97;61.86;47592.13;5050774;28;20656;-81
2022/11/02 06:49:10;;;;;;;19.70;10.33;;;;;;;-141.97;61.57;47659.38;5050751;28;20253;-81
2022/11/02 06:51:35;;;;;;;18.53;10.33;;;;;;;-141.97;60.69;47584.44;5050757;28;20199;-80
2022/11/02 06:54:00;;;;;;;25.30;10.50;;;;;;;-141.97;60.53;47549.84;5050782;28;20600;-80
2022/11/02 06:56:26;;;;;;;24.73;10.50;;;;;;;-141.97;59.61;47563.28;5033233;28;20185;-81
2022/11/02 06:58:51;;;;;;;25.17;13.57;;;;;;;-141.97;59.07;47538.28;5032818;28;20192;-80
2022/11/02 07:01:16;;;;;;;19.23;10.80;;;;;;;-141.97;58.36;47559.44;5050973;28;20681;-81
2022/11/02 07:03:42;;;;;;;20.37;10.63;;;;;;;-141.97;57.29;47509.47;5050902;28;20196;-82
2022/11/02 07:06:10;;;;;;;23.80;10.87;;;;;;;-141.97;56.71;47557.53;5050030;28;20725;-81
2022/11/02 07:08:36;;;;;;;22.30;11.53;;;;;;;-141.97;55.52;47422.97;5050637;28;20189;-81
2022/11/02 07:11:01;;;;;;;24.27;11.10;;;;;;;-141.97;55.14;47519.06;5053336;28;20193;-79
2022/11/02 07:13:26;;;;;;;20.23;9.80;;;;;;;-141.97;54.74;47534.44;5051990;28;20185;-82
2022/11/02 07:15:53;;;;;;;19.07;10.57;;;;;;;-141.97;54.05;47580.59;5050503;28;20260;-81
2022/11/02 07:18:19;;;;;;;32.53;17.20;;;;;;;-141.97;52.97;47594.03;5053491;28;20182;-80
2022/11/02 07:20:44;;;;;;;23.70;13.50;;;;;;;-141.97;53.22;47536.38;5073244;28;20210;-81
2022/11/02 07:23:09;;;;;;;23.50;13.33;;;;;;;-141.97;53.01;47526.75;5079385;28;20574;-81
2022/11/02 07:25:35;;;;;;;25.73;13.43;;;;;;;-141.97;53.35;47542.16;5065126;28;20224;-82
2022/11/02 07:28:02;;;;;;;24.77;12.27;;;;;;;-141.97;52.89;47569.06;5075446;28;20229;-81
2022/11/02 07:30:29;;;;;;;23.37;11.87;;;;;;;-141.97;52.93;47559.44;5074035;28;20205;-81
2022/11/02 07:32:54;;;;;;;23.13;11.97;;;;;;;-141.97;52.40;47542.16;5074290;28;20266;-80
2022/11/02 07:35:20;;;;;;;20.47;12.13;;;;;;;-141.97;51.71;47638.25;5073942;28;20308;-80
2022/11/02 07:38:00;;;;;;;24.10;11.77;;;;;;;-141.97;50.48;47551.75;5073830;28;20177;-82
2022/11/02 07:40:27;;;;;;;23.80;14.10;;;;;;;-141.97;49.62;47532.53;5056197;28;20696;-83
2022/11/02 07:42:52;;;;;;;20.53;12.33;;;;;;;-141.97;49.08;47542.16;5056930;28;20242;-85
2022/11/02 07:45:19;;;;;;;16.50;9.73;;;;;;;-141.97;48.43;47561.38;5074449;28;20555;-82
2022/11/02 07:47:47;;;;;;;20.43;9.70;;;;;;;-141.97;49.68;47559.44;5056048;28;20268;-82
2022/11/02 07:50:13;;;;;;;18.70;10.27;;;;;;;-141.97;50.90;47549.84;5073524;28;20188;-80
2022/11/02 07:52:52;;;;;;;22.10;11.50;;;;;;;-141.97;50.72;47546.00;5075054;28;20191;-82
2022/11/02 07:55:21;;;;;;;24.53;11.37;;;;;;;-141.97;50.06;47551.75;5074884;28;20278;-79
2022/11/02 07:57:57;;;;;;;16.50;8.80;;;;;;;-141.97;49.10;47567.13;5074633;28;20177;-81
2022/11/02 08:00:23;;;;;;;17.20;8.67;;;;;;;-141.97;47.94;47570.97;5073968;28;20257;-80
2022/11/02 08:02:53;;;;;;;15.33;8.80;;;;;;;-141.97;48.22;47549.84;5073704;28;20184;-80
2022/11/02 08:05:18;;;;;;;20.00;9.20;;;;;;;-141.97;48.47;47547.91;5071552;28;20188;-80
2022/11/02 08:07:43;;;;;;;19.70;8.73;;;;;;;-141.97;47.02;47553.69;5072568;28;20183;-80
2022/11/02 08:10:09;;;;;;;19.37;8.63;;;;;;;-141.97;46.24;47530.59;5072662;28;20241;-81
2022/11/02 08:12:34;;;;;;;16.20;8.30;;;;;;;-141.97;46.01;47576.75;5072329;28;20200;-79
2022/11/02 08:14:59;;;;;;;20.70;9.57;;;;;;;-141.97;45.17;47565.22;5072497;28;20592;-80
2022/11/02 08:17:25;;;;;;;23.03;11.03;;;;;;;-141.97;44.91;47536.38;5072364;28;20177;-81
2022/11/02 08:19:50;;;;;;;26.57;10.30;;;;;;;-141.97;44.39;47553.69;5060429;28;20272;-80
2022/11/02 08:22:16;;;;;;;20.43;9.70;;;;;;;-141.97;43.80;47526.75;5049786;28;20188;-79
2022/11/02 08:24:41;;;;;;;22.53;9.50;;;;;;;-141.97;43.91;47651.69;5040461;28;20302;-80
2022/11/02 08:27:06;;;;;;;18.23;9.57;;;;;;;-141.97;43.84;47544.06;5049548;28;20205;-79
2022/11/02 08:29:33;;;;;;;17.63;9.07;;;;;;;-141.97;42.60;47526.75;5049644;28;20185;-80
2022/11/02 08:32:01;;;;;;;19.20;9.83;;;;;;;-141.97;41.51;47461.41;5050602;28;20266;-81
2022/11/02 08:34:27;;;;;;;18.33;8.87;;;;;;;-141.97;41.18;47492.16;5049021;28;20225;-81
2022/11/02 08:36:52;;;;;;;19.13;8.30;;;;;;;-141.97;41.39;47559.44;5048942;28;20181;-80
2022/11/02 08:39:18;;;;;;;14.53;8.73;;;;;;;-141.97;40.51;47515.22;5050473;28;20583;-80
2022/11/02 08:41:46;;;;;;;20.30;7.90;;;;;;;-141.97;40.49;47515.22;5049439;28;20229;-81
2022/11/02 08:44:11;;;;;;;20.67;7.97;;;;;;;-141.97;40.50;47492.16;5050217;28;20181;-81
2022/11/02 08:46:37;;;;;;;20.80;8.23;;;;;;;-141.97;40.06;47499.84;5050486;28;20182;-81
2022/11/02 08:49:02;;;;;;;16.23;8.00;;;;;;;-141.97;39.68;47503.69;5050373;28;20292;-80
2022/11/02 08:51:28;;;;;;;16.83;8.13;;;;;;;-141.97;40.03;47482.56;5049086;28;20190;-80
2022/11/02 08:53:53;;;;;;;22.67;10.27;;;;;;;-141.97;39.89;47511.38;5050095;28;20530;-80
2022/11/02 08:56:19;;;;;;;26.67;12.03;;;;;;;-141.97;38.58;47490.25;5049123;28;20192;-79
2022/11/02 08:58:44;;;;;;;29.37;12.73;;;;;;;-141.97;38.38;47469.09;5052832;28;20220;-79
2022/11/02 09:01:10;;;;;;;19.33;9.73;;;;;;;-141.97;38.29;47484.47;5071980;28;20212;-79
2022/11/02 09:03:35;;;;;;;20.90;10.40;;;;;;;-141.97;37.66;47459.50;5050541;28;20193;-79
2022/11/02 09:06:01;;;;;;;20.10;9.97;;;;;;;-141.97;36.99;47440.28;5050653;28;20668;-79
2022/11/02 09:08:28;;;;;;;26.10;10.00;;;;;;;-141.97;36.33;47521.00;5049193;28;20238;-80
2022/11/02 09:10:57;;;;;;;20.80;10.43;;;;;;;-141.97;35.52;47461.41;5049151;28;20625;-80
2022/11/02 09:13:25;;;;;;;24.13;10.80;;;;;;;-141.97;35.57;47469.09;5047112;28;20845;-79
2022/11/02 09:15:52;;;;;;;19.63;10.10;;;;;;;-141.97;34.73;47488.31;5049449;28;20246;-80
2022/11/02 09:18:18;;;;;;;20.80;10.43;;;;;;;-141.97;34.48;47434.50;5051674;28;20212;-80
2022/11/02 09:20:45;;;;;;;19.37;10.17;;;;;;;-141.97;34.65;47447.97;5070273;28;20638;-82
2022/11/02 09:23:11;;;;;;;23.17;8.63;;;;;;;-141.97;34.26;47497.94;5072727;28;20184;-79
2022/11/02 09:25:36;;;;;;;19.53;8.60;;;;;;;-141.97;33.43;47453.72;5064114;28;20619;-79
2022/11/02 09:28:01;;;;;;;19.80;8.30;;;;;;;-141.97;33.56;47442.19;5073334;28;20234;-80
2022/11/02 09:30:27;;;;;;;20.17;8.50;;;;;;;-141.97;33.36;47461.41;5072989;28;20180;-80
2022/11/02 09:32:54;;;;;;;25.10;13.00;;;;;;;-141.97;33.51;47422.97;5072365;28;20192;-80
2022/11/02 09:35:20;;;;;;;24.27;10.47;;;;;;;-141.97;33.33;47424.91;5070617;28;20232;-79
2022/11/02 09:37:45;;;;;;;24.60;11.40;;;;;;;-141.97;32.58;47561.38;5070282;28;20184;-80
2022/11/02 09:40:12;;;;;;;25.87;10.17;;;;;;;-141.97;32.16;47396.06;5069010;28;20291;-80
2022/11/02 09:42:52;;;;;;;26.03;11.07;;;;;;;-141.97;31.41;47415.28;5069003;28;20281;-81
2022/11/02 09:45:19;;;;;;;18.13;8.33;;;;;;;-141.97;31.52;47430.66;5058574;28;20212;-80
2022/11/02 09:47:49;;;;;;;16.25;7.13;;;;;;;-141.97;31.45;47422.97;5048797;28;20648;-82
2022/11/02 09:50:22;;;;;;;21.15;7.93;;;;;;;-141.97;31.30;47403.75;5049067;28;20181;-80
2022/11/02 09:53:01;;;;;;;23.90;6.90;;;;;;;-141.97;30.85;47422.97;5049400;28;20390;-81
2022/11/02 09:55:35;;;;;;;13.63;6.78;;;;;;;-141.97;30.61;47403.75;5051018;28;20176;-79
2022/11/02 09:58:06;;;;;;;17.02;7.30;;;;;;;-141.97;30.25;47399.91;5051576;28;20186;-79
2022/11/02 10:00:37;;;;;;;19.20;6.60;;;;;;;-141.97;29.79;47430.66;5050960;28;20191;-80
2022/11/02 10:03:35;;;;;;;16.67;6.03;;;;;;;-141.97;29.69;47421.06;5051667;28;20201;-80
2022/11/02 10:06:14;;;;;;;15.95;5.82;;;;;;;-141.97;29.28;47378.78;5048048;28;20184;-80
2022/11/02 10:08:51;;;;;;;14.52;6.47;;;;;;;-141.97;29.08;47374.94;5048178;28;20783;-80
2022/11/02 10:11:36;;;;;;;20.58;6.40;;;;;;;-141.97;29.12;47374.94;5047787;28;20188;-79
2022/11/02 10:14:29;;;;;;;14.90;5.70;;;;;;;-141.97;29.29;47386.47;5049410;28;20209;-80
2022/11/02 10:17:04;;;;;;;14.48;6.25;;;;;;;-141.97;29.09;47374.94;5066410;28;20190;-79
2022/11/02 10:19:36;;;;;;;16.40;6.63;;;;;;;-141.97;29.02;47407.59;5049393;28;20182;-80
2022/11/02 10:22:02;;;;;;;20.90;6.72;;;;;;;-141.97;28.64;47376.84;5068022;28;20211;-82
2022/11/02 10:24:30;;;;;;;16.90;6.68;;;;;;;-141.97;28.69;47376.84;5058879;28;20227;-80
2022/11/02 10:27:00;;;;;;;19.70;5.70;;;;;;;-141.97;27.71;47371.09;5067802;28;20187;-80
2022/11/02 10:29:46;;;;;;;14.63;5.25;;;;;;;-141.97;27.56;47374.94;5067869;28;20215;-81
2022/11/02 10:32:13;;;;;;;12.98;5.40;;;;;;;-141.97;27.32;47373.00;5069340;28;20796;-82
2022/11/02 10:34:41;;;;;;;13.73;5.55;;;;;;;-141.97;27.04;47396.06;5071419;28;20222;-80
2022/11/02 10:37:31;;;;;;;15.77;5.60;;;;;;;-141.97;26.96;47422.97;5070326;28;20191;-79
2022/11/02 10:40:18;;;;;;;11.45;4.93;;;;;;;-141.97;27.13;47396.06;5068452;28;21055;-80
2022/11/02 10:42:49;;;;;;;14.75;4.97;;;;;;;-141.97;26.84;47388.38;5067473;28;20184;-79
2022/11/02 10:45:37;;;;;;;13.60;4.93;;;;;;;-141.97;27.00;47353.78;5067104;28;20575;-80
2022/11/02 10:48:16;;;;;;;10.45;4.60;;;;;;;-141.97;27.07;47390.31;5067785;28;20206;-80
2022/11/02 10:51:00;;;;;;;18.52;4.95;;;;;;;-141.97;26.85;47382.63;5067648;28;20223;-79
2022/11/02 10:53:25;;;;;;;11.82;4.82;;;;;;;-141.97;26.96;47376.84;5067358;28;20905;-79
2022/11/02 10:55:57;;;;;;;14.55;5.20;;;;;;;-141.97;26.45;47380.69;5067230;28;20267;-80
2022/11/02 10:58:26;;;;;;;14.88;4.80;;;;;;;-141.97;26.24;47340.34;5067397;28;20186;-80
2022/11/02 11:01:04;;;;;;;12.60;4.70;;;;;;;-141.97;26.35;47359.56;5072001;28;20204;-81
2022/11/02 11:03:29;;;;;;;12.02;4.55;;;;;;;-141.97;26.06;47365.31;5071517;28;20656;-80
2022/11/02 11:06:01;;;;;;;14.18;5.70;;;;;;;-141.97;26.25;47376.84;5071490;28;20188;-80
2022/11/02 11:08:36;;;;;;;10.43;4.10;;;;;;;-141.97;26.38;47359.56;5071630;28;20181;-82
2022/11/02 11:11:27;;;;;;;12.70;4.32;;;;;;;-141.97;25.95;47405.69;5071652;28;20179;-80
2022/11/02 11:14:00;;;;;;;18.08;4.47;;;;;;;-141.97;26.15;47363.41;5070958;28;20181;-80
2022/11/02 11:16:34;;;;;;;10.70;4.15;;;;;;;-141.97;25.88;47378.78;5072056;28;20677;-79
2022/11/02 11:19:00;;;;;;;10.80;4.53;;;;;;;-141.97;26.17;47361.47;5072301;28;20727;-81
2022/11/02 11:21:36;;;;;;;14.38;4.03;;;;;;;-141.97;26.25;47346.09;5072323;28;20225;-79
2022/11/02 11:24:18;;;;;;;11.52;4.10;;;;;;;-141.97;26.13;47401.84;5056538;28;20190;-79
2022/11/02 11:26:43;;;;;;;12.75;4.53;;;;;;;-141.97;26.06;47361.47;5052349;28;20191;-80
2022/11/02 11:29:21;;;;;;;9.52;3.80;;;;;;;-141.97;25.92;47384.53;5051586;28;20278;-79
2022/11/02 11:31:47;;;;;;;9.77;4.05;;;;;;;-141.97;26.06;47386.47;5050796;28;20196;-80